Time;durP1;ratioP1;P1;durP2;ratioP2;P2;SDS_P1;SDS_P2;PMS_P1;PMS_P2;Temp;Humidity;BMP_temperature;BMP_pressure;BME280_temperature;BME280_humidity;BME280_pressure;Samples;Min_cycle;Max_cycle;Signal;HPM_P1;HPM_P2
2021/07/25 00:00:06;;;;;;;14.27;12.77;;;20.20;99.90;;;;;;4997539;28;20406;-71
2021/07/25 00:02:34;;;;;;;14.53;13.03;;;20.20;99.90;;;;;;4997400;28;20183;-70
2021/07/25 00:05:00;;;;;;;13.47;12.17;;;20.30;99.90;;;;;;4997491;28;20402;-71
2021/07/25 00:07:25;;;;;;;14.37;12.87;;;20.30;99.90;;;;;;4997490;28;20410;-70
2021/07/25 00:09:51;;;;;;;14.67;13.17;;;20.30;99.90;;;;;;4997336;28;20417;-70
2021/07/25 00:12:17;;;;;;;14.53;12.73;;;20.20;99.90;;;;;;4997337;28;20244;-70
2021/07/25 00:14:43;;;;;;;15.40;13.77;;;20.20;99.90;;;;;;4997342;28;20191;-70
2021/07/25 00:17:08;;;;;;;13.77;12.17;;;20.30;99.90;;;;;;4997196;28;20442;-70
2021/07/25 00:19:35;;;;;;;14.50;13.00;;;20.30;99.90;;;;;;4997214;28;20194;-71
2021/07/25 00:22:02;;;;;;;15.27;12.93;;;20.20;99.90;;;;;;4997123;28;20167;-70
2021/07/25 00:24:33;;;;;;;15.40;13.80;;;20.20;99.90;;;;;;4997148;28;20969;-70
2021/07/25 00:27:00;;;;;;;14.77;13.20;;;20.20;99.90;;;;;;4997135;28;20699;-70
2021/07/25 00:29:30;;;;;;;14.37;12.90;;;20.00;99.90;;;;;;4996988;28;20410;-71
2021/07/25 00:32:03;;;;;;;18.37;13.93;;;19.90;99.90;;;;;;4996965;28;20481;-71
2021/07/25 00:34:33;;;;;;;16.93;13.90;;;19.90;99.90;;;;;;4997225;28;20394;-71
2021/07/25 00:36:59;;;;;;;13.83;12.43;;;19.80;99.90;;;;;;4996999;28;20749;-71
2021/07/25 00:39:26;;;;;;;16.23;13.00;;;19.80;99.90;;;;;;4996852;28;20414;-70
2021/07/25 00:41:52;;;;;;;15.47;13.57;;;19.80;99.90;;;;;;4996875;28;20761;-71
2021/07/25 00:44:19;;;;;;;16.30;13.50;;;19.70;99.90;;;;;;4979549;28;20465;-70
2021/07/25 00:46:58;;;;;;;15.27;13.67;;;19.70;99.90;;;;;;4995915;28;20498;-70
2021/07/25 00:49:25;;;;;;;14.90;13.53;;;19.70;99.90;;;;;;4996629;28;20426;-70
2021/07/25 00:51:50;;;;;;;15.30;13.00;;;19.80;99.90;;;;;;4996607;28;20481;-70
2021/07/25 00:54:16;;;;;;;16.90;13.30;;;19.80;99.90;;;;;;4996817;28;20410;-70
2021/07/25 00:56:42;;;;;;;15.87;14.30;;;19.80;99.90;;;;;;4996437;28;20191;-71
2021/07/25 00:59:07;;;;;;;16.23;14.63;;;19.80;99.90;;;;;;4996488;28;20173;-71
2021/07/25 01:01:33;;;;;;;14.90;13.30;;;19.80;99.90;;;;;;4996428;28;20171;-70
2021/07/25 01:04:23;;;;;;;15.63;13.80;;;19.80;99.90;;;;;;4996581;28;20167;-70
2021/07/25 01:07:09;;;;;;;22.50;14.90;;;19.80;99.90;;;;;;4996571;28;20493;-70
2021/07/25 01:09:57;;;;;;;15.83;14.23;;;19.80;99.90;;;;;;4996376;28;20481;-71
2021/07/25 01:12:23;;;;;;;16.03;14.10;;;19.80;99.90;;;;;;4996256;28;20396;-71
2021/07/25 01:14:52;;;;;;;15.70;13.73;;;19.70;99.90;;;;;;4996248;28;20415;-70
2021/07/25 01:17:30;;;;;;;17.33;15.53;;;19.70;99.90;;;;;;4996130;28;20274;-71
2021/07/25 01:20:01;;;;;;;17.27;13.93;;;19.70;99.90;;;;;;4996179;28;20453;-70
2021/07/25 01:22:30;;;;;;;14.60;13.13;;;19.70;99.90;;;;;;4996091;28;20406;-71
2021/07/25 01:24:55;;;;;;;15.23;13.73;;;19.70;99.90;;;;;;4996013;28;20402;-71
2021/07/25 01:27:47;;;;;;;14.13;12.83;;;19.70;99.90;;;;;;4995926;28;20498;-70
2021/07/25 01:30:17;;;;;;;15.80;14.13;;;19.70;99.90;;;;;;4978717;28;20217;-70
2021/07/25 01:32:44;;;;;;;14.70;13.10;;;19.70;99.90;;;;;;4995826;28;20399;-70
2021/07/25 01:35:14;;;;;;;16.10;13.87;;;19.70;99.90;;;;;;4995805;28;20410;-70
2021/07/25 01:37:41;;;;;;;16.07;14.23;;;19.60;99.90;;;;;;4995747;28;20501;-70
2021/07/25 01:40:18;;;;;;;17.27;13.67;;;19.60;99.90;;;;;;4995609;28;20438;-71
2021/07/25 01:42:44;;;;;;;15.70;14.10;;;19.60;99.90;;;;;;4995741;28;20433;-70
2021/07/25 01:45:11;;;;;;;14.97;13.50;;;19.60;99.90;;;;;;4995621;28;20425;-70
2021/07/25 01:47:37;;;;;;;15.00;13.40;;;19.60;99.90;;;;;;4995730;28;20423;-70
2021/07/25 01:50:04;;;;;;;16.10;14.40;;;19.60;99.90;;;;;;4995455;28;20501;-70
2021/07/25 01:52:30;;;;;;;15.83;14.20;;;19.60;99.90;;;;;;4995435;28;20951;-70
2021/07/25 01:54:56;;;;;;;18.07;15.17;;;19.60;99.90;;;;;;4995454;28;20449;-70
2021/07/25 01:57:21;;;;;;;16.83;14.40;;;19.60;99.90;;;;;;4995279;28;20478;-71
2021/07/25 01:59:47;;;;;;;15.33;13.83;;;19.60;99.90;;;;;;4995406;28;20176;-70
2021/07/25 02:02:13;;;;;;;16.70;15.00;;;19.60;99.90;;;;;;4995262;28;20172;-70
2021/07/25 02:04:38;;;;;;;18.00;15.80;;;19.60;99.90;;;;;;4995214;28;20243;-71
2021/07/25 02:07:07;;;;;;;17.63;14.70;;;19.60;99.90;;;;;;4995383;28;20210;-70
2021/07/25 02:09:36;;;;;;;19.23;16.03;;;19.60;99.90;;;;;;4995199;28;20506;-70
2021/07/25 02:12:11;;;;;;;19.17;16.90;;;19.60;99.90;;;;;;4995268;28;20419;-70
2021/07/25 02:14:38;;;;;;;17.10;15.40;;;19.60;99.90;;;;;;4995141;28;20394;-70
2021/07/25 02:17:06;;;;;;;16.07;14.37;;;19.60;99.90;;;;;;4995003;28;20477;-70
2021/07/25 02:19:32;;;;;;;18.70;16.47;;;19.60;99.90;;;;;;4994962;28;20406;-70
2021/07/25 02:21:58;;;;;;;17.60;15.80;;;19.50;99.90;;;;;;4994867;28;20883;-70
2021/07/25 02:24:25;;;;;;;18.07;15.07;;;19.50;99.90;;;;;;4977757;28;20544;-70
2021/07/25 02:26:52;;;;;;;17.70;15.23;;;19.50;99.90;;;;;;4994779;28;20525;-70
2021/07/25 02:29:18;;;;;;;18.43;16.53;;;19.60;99.90;;;;;;4994706;28;20419;-71
2021/07/25 02:31:44;;;;;;;19.30;17.23;;;19.60;99.90;;;;;;4994765;28;20931;-70
2021/07/25 02:34:10;;;;;;;21.33;17.93;;;19.60;99.90;;;;;;4994740;28;20423;-70
2021/07/25 02:36:36;;;;;;;17.47;15.77;;;19.60;99.90;;;;;;4994642;28;20788;-71
2021/07/25 02:39:02;;;;;;;17.40;15.43;;;19.60;99.90;;;;;;4994731;28;20411;-70
2021/07/25 02:41:28;;;;;;;16.53;14.73;;;19.60;99.90;;;;;;4994891;28;20895;-71
2021/07/25 02:43:54;;;;;;;18.43;14.80;;;19.60;99.90;;;;;;4994629;28;20178;-71
2021/07/25 02:46:20;;;;;;;17.27;15.57;;;19.60;99.90;;;;;;4994591;28;20190;-70
2021/07/25 02:48:46;;;;;;;18.43;16.47;;;19.60;99.90;;;;;;4994434;28;20430;-71
2021/07/25 02:51:11;;;;;;;16.17;14.47;;;19.60;99.90;;;;;;4994485;28;20171;-70
2021/07/25 02:53:37;;;;;;;16.23;14.63;;;19.60;99.90;;;;;;4994481;28;20181;-70
2021/07/25 02:56:03;;;;;;;18.80;15.60;;;19.50;99.90;;;;;;4994414;28;20531;-71
2021/07/25 02:58:28;;;;;;;17.30;15.50;;;19.50;99.90;;;;;;4994404;28;20180;-70
2021/07/25 03:00:54;;;;;;;18.47;16.50;;;19.50;99.90;;;;;;4994415;28;20163;-70
2021/07/25 03:03:20;;;;;;;17.30;15.50;;;19.40;99.90;;;;;;4994335;28;20250;-70
2021/07/25 03:05:45;;;;;;;18.97;16.30;;;19.40;99.90;;;;;;4994397;28;20617;-70
2021/07/25 03:08:11;;;;;;;18.30;16.30;;;19.40;99.90;;;;;;4994355;28;20655;-71
2021/07/25 03:10:39;;;;;;;19.30;17.30;;;19.40;99.90;;;;;;4993853;28;20171;-71
2021/07/25 03:13:05;;;;;;;16.37;14.77;;;19.40;99.90;;;;;;4994119;28;20186;-70
2021/07/25 03:15:31;;;;;;;18.90;16.40;;;19.30;99.90;;;;;;4994158;28;20414;-70
2021/07/25 03:17:56;;;;;;;17.17;15.37;;;19.30;99.90;;;;;;4994472;28;20179;-71
2021/07/25 03:20:22;;;;;;;18.07;16.07;;;19.30;99.90;;;;;;4994449;28;20175;-71
2021/07/25 03:22:48;;;;;;;17.70;15.77;;;19.30;99.90;;;;;;4994144;28;20175;-71
2021/07/25 03:25:14;;;;;;;17.90;15.90;;;19.30;99.90;;;;;;4994192;28;20174;-70
2021/07/25 03:27:40;;;;;;;19.63;17.53;;;19.30;99.90;;;;;;4994072;28;20262;-70
2021/07/25 03:30:06;;;;;;;21.80;17.17;;;19.30;99.90;;;;;;4994311;28;20447;-70
2021/07/25 03:32:32;;;;;;;17.60;15.80;;;19.30;99.90;;;;;;4994118;28;20179;-70
2021/07/25 03:34:57;;;;;;;19.40;16.60;;;19.20;99.90;;;;;;4994080;28;20409;-70
2021/07/25 03:37:23;;;;;;;24.20;19.33;;;19.30;99.90;;;;;;4994044;28;20553;-70
2021/07/25 03:39:52;;;;;;;20.90;18.23;;;19.30;99.90;;;;;;4994274;28;20179;-70
2021/07/25 03:42:18;;;;;;;21.00;18.67;;;19.30;99.90;;;;;;4994074;28;20754;-70
2021/07/25 03:44:44;;;;;;;19.47;17.13;;;19.30;99.90;;;;;;4994078;28;20433;-70
2021/07/25 03:47:11;;;;;;;21.23;19.17;;;19.20;99.90;;;;;;4994012;28;20802;-70
2021/07/25 03:49:41;;;;;;;21.03;16.27;;;19.20;99.90;;;;;;4993759;28;20226;-70
2021/07/25 03:52:09;;;;;;;21.87;19.57;;;19.20;99.90;;;;;;4993931;28;20403;-70
2021/07/25 03:54:36;;;;;;;20.40;17.57;;;19.20;99.90;;;;;;4993910;28;20944;-71
2021/07/25 03:57:01;;;;;;;23.83;19.03;;;19.20;99.90;;;;;;4993836;28;20446;-70
2021/07/25 03:59:27;;;;;;;24.13;19.10;;;19.30;99.90;;;;;;4993859;28;20413;-70
2021/07/25 04:01:53;;;;;;;23.10;20.70;;;19.30;99.90;;;;;;4994178;28;20168;-70
2021/07/25 04:04:18;;;;;;;22.30;19.30;;;19.30;99.90;;;;;;4993885;28;20502;-70
2021/07/25 04:06:44;;;;;;;21.83;18.97;;;19.30;99.90;;;;;;4993841;28;20167;-70
2021/07/25 04:09:09;;;;;;;26.40;22.13;;;19.30;99.90;;;;;;4993757;28;20614;-71
2021/07/25 04:11:35;;;;;;;25.70;21.67;;;19.30;99.90;;;;;;4993960;28;20182;-71
2021/07/25 04:14:01;;;;;;;25.03;20.23;;;19.30;99.90;;;;;;4993790;28;20167;-71
2021/07/25 04:16:26;;;;;;;27.10;21.80;;;19.20;99.90;;;;;;4993743;28;20188;-70
2021/07/25 04:18:52;;;;;;;27.20;21.60;;;19.30;99.90;;;;;;4994003;28;20273;-71
2021/07/25 04:21:17;;;;;;;26.93;22.13;;;19.30;99.90;;;;;;4994338;28;20178;-70
2021/07/25 04:23:43;;;;;;;25.37;21.53;;;19.30;99.90;;;;;;4997245;28;20159;-70
2021/07/25 04:26:09;;;;;;;31.80;22.47;;;19.30;99.90;;;;;;4997191;28;20177;-71
2021/07/25 04:28:35;;;;;;;27.03;22.33;;;19.30;99.90;;;;;;4997060;28;20222;-70
2021/07/25 04:31:02;;;;;;;29.33;24.60;;;19.30;99.90;;;;;;4996918;28;20597;-71
2021/07/25 04:33:29;;;;;;;24.23;20.40;;;19.30;99.90;;;;;;4997006;28;20876;-71
2021/07/25 04:35:56;;;;;;;35.93;27.10;;;19.30;99.90;;;;;;4996939;28;20557;-70
2021/07/25 04:38:22;;;;;;;27.90;21.77;;;19.30;99.90;;;;;;4996849;28;20494;-70
2021/07/25 04:40:59;;;;;;;25.50;20.80;;;19.30;99.90;;;;;;4996821;28;20939;-71
2021/07/25 04:43:29;;;;;;;23.20;18.50;;;19.40;99.90;;;;;;4996940;28;20163;-70
2021/07/25 04:46:02;;;;;;;27.37;24.03;;;19.40;99.90;;;;;;4996696;28;20424;-70
2021/07/25 04:48:46;;;;;;;30.53;24.13;;;19.40;99.90;;;;;;4996526;28;20387;-71
2021/07/25 04:51:12;;;;;;;31.40;26.20;;;19.50;99.90;;;;;;4996669;28;20406;-70
2021/07/25 04:53:40;;;;;;;32.43;24.90;;;19.50;99.90;;;;;;4979414;28;20827;-70
2021/07/25 04:56:12;;;;;;;23.80;20.67;;;19.50;99.90;;;;;;4996627;28;20442;-70
2021/07/25 04:59:01;;;;;;;28.23;23.27;;;19.50;99.90;;;;;;4996647;28;20482;-70
2021/07/25 05:01:30;;;;;;;23.33;20.33;;;19.50;99.90;;;;;;4979510;28;20387;-71
2021/07/25 05:03:56;;;;;;;24.73;20.97;;;19.50;99.90;;;;;;4996481;28;20406;-70
2021/07/25 05:06:23;;;;;;;31.03;25.17;;;19.50;99.90;;;;;;4996314;28;20493;-71
2021/07/25 05:08:49;;;;;;;34.10;26.00;;;19.50;99.90;;;;;;4979246;28;20518;-70
2021/07/25 05:11:21;;;;;;;30.13;23.00;;;19.50;99.90;;;;;;4996301;28;20749;-71
2021/07/25 05:13:49;;;;;;;32.60;25.53;;;19.50;99.90;;;;;;4996238;28;20415;-70
2021/07/25 05:16:26;;;;;;;35.87;28.33;;;19.50;99.90;;;;;;4996470;28;20545;-70
2021/07/25 05:19:27;;;;;;;37.47;28.70;;;19.50;99.90;;;;;;4996149;28;20414;-71
2021/07/25 05:22:22;;;;;;;35.77;28.17;;;19.50;99.90;;;;;;4991510;28;20417;-71
2021/07/25 05:24:50;;;;;;;35.53;26.10;;;19.50;99.90;;;;;;4995962;28;20473;-71
2021/07/25 05:27:23;;;;;;;37.73;28.97;;;19.50;99.90;;;;;;4996215;28;20410;-70
2021/07/25 05:29:52;;;;;;;40.50;30.93;;;19.50;99.90;;;;;;4996217;28;20425;-70
2021/07/25 05:32:19;;;;;;;33.50;25.90;;;19.60;99.90;;;;;;4995784;28;20419;-70
2021/07/25 05:34:46;;;;;;;36.80;26.13;;;19.60;99.90;;;;;;4995796;28;20416;-70
2021/07/25 05:37:12;;;;;;;44.97;31.23;;;19.60;99.90;;;;;;4995662;28;20454;-70
2021/07/25 05:39:37;;;;;;;34.13;26.80;;;19.60;99.90;;;;;;4995725;28;20422;-71
2021/07/25 05:42:03;;;;;;;37.83;28.57;;;19.60;99.90;;;;;;4995562;28;20174;-71
2021/07/25 05:44:31;;;;;;;38.57;27.97;;;19.60;99.90;;;;;;4995604;28;20254;-71
2021/07/25 05:46:58;;;;;;;36.60;27.33;;;19.70;99.90;;;;;;4995568;28;20553;-70
2021/07/25 05:49:24;;;;;;;29.80;23.80;;;19.70;99.90;;;;;;4995491;28;20457;-70
2021/07/25 05:51:49;;;;;;;27.33;22.60;;;19.70;99.90;;;;;;4995426;28;20742;-70
2021/07/25 05:54:15;;;;;;;40.87;29.80;;;19.80;99.90;;;;;;4995397;28;20238;-70
2021/07/25 05:56:40;;;;;;;42.07;28.90;;;19.80;99.90;;;;;;4995346;28;20656;-71
2021/07/25 05:59:10;;;;;;;28.43;22.87;;;19.90;99.90;;;;;;4995397;28;20179;-70
2021/07/25 06:01:36;;;;;;;36.80;26.87;;;19.90;99.90;;;;;;4995528;28;20175;-70
2021/07/25 06:04:03;;;;;;;29.23;22.67;;;19.90;99.90;;;;;;4995273;28;20748;-70
2021/07/25 06:06:30;;;;;;;29.73;24.73;;;19.90;99.90;;;;;;4995261;28;20455;-70
2021/07/25 06:08:56;;;;;;;27.43;22.23;;;19.90;99.90;;;;;;4995496;28;20725;-70
2021/07/25 06:11:22;;;;;;;32.40;24.27;;;20.00;99.90;;;;;;4995178;28;20410;-71
2021/07/25 06:13:49;;;;;;;31.50;26.73;;;20.10;99.90;;;;;;4977939;28;20510;-70
2021/07/25 06:16:14;;;;;;;31.07;24.30;;;20.00;99.90;;;;;;4994988;28;20785;-70
2021/07/25 06:18:40;;;;;;;31.40;23.70;;;20.10;99.90;;;;;;4995028;28;20425;-71
2021/07/25 06:21:06;;;;;;;35.80;27.33;;;20.20;99.90;;;;;;4994865;28;20539;-70
2021/07/25 06:23:31;;;;;;;30.87;22.47;;;20.20;99.90;;;;;;4994955;28;20170;-70
2021/07/25 06:25:57;;;;;;;24.43;21.23;;;20.20;99.90;;;;;;4977809;28;20179;-70
2021/07/25 06:28:22;;;;;;;27.40;20.67;;;20.30;99.90;;;;;;4994938;28;20906;-70
2021/07/25 06:30:48;;;;;;;34.30;25.33;;;20.30;99.90;;;;;;4994832;28;20189;-70
2021/07/25 06:33:14;;;;;;;29.60;21.93;;;20.30;99.90;;;;;;4994763;28;20254;-70
2021/07/25 06:35:41;;;;;;;27.87;22.07;;;20.50;99.90;;;;;;4994640;28;20176;-70
2021/07/25 06:38:13;;;;;;;25.40;20.47;;;20.50;99.90;;;;;;4994999;28;20534;-70
2021/07/25 06:40:42;;;;;;;25.40;21.03;;;20.50;99.90;;;;;;4994719;28;20450;-71
2021/07/25 06:43:07;;;;;;;26.40;21.13;;;20.50;99.90;;;;;;4994595;28;20410;-70
2021/07/25 06:45:34;;;;;;;23.47;20.83;;;20.50;99.90;;;;;;4994049;28;20461;-70
2021/07/25 06:48:00;;;;;;;25.17;20.97;;;20.60;99.90;;;;;;4994541;28;20298;-70
2021/07/25 06:50:27;;;;;;;30.07;25.07;;;20.70;99.90;;;;;;4994452;28;20430;-71
2021/07/25 06:52:54;;;;;;;23.37;19.57;;;20.70;99.90;;;;;;4994523;28;20856;-70
2021/07/25 06:55:28;;;;;;;27.27;18.60;;;20.70;99.90;;;;;;4994770;28;20418;-71
2021/07/25 06:57:54;;;;;;;22.53;19.00;;;20.70;99.90;;;;;;4994486;28;20735;-70
2021/07/25 07:00:20;;;;;;;23.83;20.33;;;20.80;99.90;;;;;;4994414;28;20413;-70
2021/07/25 07:02:56;;;;;;;22.50;18.40;;;20.80;99.90;;;;;;4994628;28;20175;-70
2021/07/25 07:05:30;;;;;;;21.77;18.03;;;20.80;99.90;;;;;;4994373;28;20152;-70
2021/07/25 07:08:03;;;;;;;19.40;17.20;;;20.90;99.90;;;;;;4994386;28;20724;-71
2021/07/25 07:10:41;;;;;;;18.77;16.70;;;20.90;99.90;;;;;;4994379;28;20378;-70
2021/07/25 07:13:09;;;;;;;27.63;16.23;;;21.00;99.90;;;;;;4994320;28;20387;-70
2021/07/25 07:15:37;;;;;;;17.77;15.97;;;21.00;99.90;;;;;;4994242;28;20449;-70
2021/07/25 07:18:03;;;;;;;17.67;15.80;;;21.10;99.90;;;;;;4994223;28;20402;-70
2021/07/25 07:20:30;;;;;;;16.80;15.00;;;21.20;99.90;;;;;;4994158;28;20399;-70
2021/07/25 07:22:58;;;;;;;17.77;15.40;;;21.20;99.90;;;;;;4994120;28;20872;-70
2021/07/25 07:25:26;;;;;;;19.53;15.13;;;21.30;99.90;;;;;;4994211;28;20497;-70
2021/07/25 07:27:53;;;;;;;20.40;17.40;;;21.40;99.90;;;;;;4994158;28;20427;-70
2021/07/25 07:30:19;;;;;;;17.80;15.00;;;21.50;99.90;;;;;;4994091;28;20399;-70
2021/07/25 07:32:45;;;;;;;20.43;17.13;;;21.50;99.90;;;;;;4994329;28;20424;-70
2021/07/25 07:35:10;;;;;;;20.03;15.40;;;21.60;99.90;;;;;;4994455;28;20973;-71
2021/07/25 07:37:36;;;;;;;16.10;14.40;;;21.70;99.90;;;;;;4994147;28;20290;-71
2021/07/25 07:40:03;;;;;;;19.20;15.47;;;21.70;99.90;;;;;;4994006;28;20221;-70
2021/07/25 07:42:29;;;;;;;17.47;13.20;;;21.90;99.90;;;;;;4994073;28;20175;-70
2021/07/25 07:44:55;;;;;;;19.47;15.87;;;21.90;99.90;;;;;;4994055;28;20395;-70
2021/07/25 07:47:22;;;;;;;16.10;14.40;;;21.90;99.90;;;;;;4993883;28;20441;-70
2021/07/25 07:49:48;;;;;;;19.10;15.37;;;22.10;99.90;;;;;;4993790;28;20786;-71
2021/07/25 07:52:14;;;;;;;15.73;14.13;;;22.10;99.90;;;;;;4993917;28;20418;-70
2021/07/25 07:54:40;;;;;;;15.40;13.73;;;22.10;99.90;;;;;;4993935;28;20430;-70
2021/07/25 07:57:05;;;;;;;18.37;13.80;;;22.10;99.90;;;;;;4997870;28;20527;-71
2021/07/25 07:59:31;;;;;;;19.90;15.00;;;22.20;99.90;;;;;;4980591;28;20517;-70
2021/07/25 08:01:58;;;;;;;13.30;12.10;;;22.30;99.90;;;;;;4997555;28;20205;-70
2021/07/25 08:04:24;;;;;;;18.83;14.00;;;22.30;99.90;;;;;;4997763;28;20183;-70
2021/07/25 08:06:49;;;;;;;14.30;12.40;;;22.40;99.90;;;;;;4997483;28;20748;-70
2021/07/25 08:09:15;;;;;;;15.00;13.60;;;22.50;99.90;;;;;;4997392;28;20171;-71
2021/07/25 08:11:45;;;;;;;12.50;11.30;;;22.60;99.90;;;;;;4997411;28;20163;-71
2021/07/25 08:14:12;;;;;;;13.90;11.50;;;22.60;99.90;;;;;;4997482;28;20175;-70
2021/07/25 08:16:38;;;;;;;13.10;11.73;;;22.70;99.90;;;;;;4997203;28;20933;-71
2021/07/25 08:19:04;;;;;;;14.30;11.77;;;22.80;99.90;;;;;;4997154;28;20406;-71
2021/07/25 08:21:29;;;;;;;15.03;12.63;;;22.90;99.90;;;;;;4997336;28;20179;-70
2021/07/25 08:23:55;;;;;;;13.63;12.30;;;22.90;99.90;;;;;;4997215;28;20482;-70
2021/07/25 08:26:20;;;;;;;13.57;11.50;;;23.10;99.90;;;;;;4997141;28;20597;-71
2021/07/25 08:28:46;;;;;;;11.43;10.33;;;23.30;99.90;;;;;;4997089;28;20175;-71
2021/07/25 08:31:12;;;;;;;12.37;11.17;;;23.30;99.90;;;;;;4997097;28;20190;-70
2021/07/25 08:33:37;;;;;;;13.03;10.70;;;23.50;99.90;;;;;;4997142;28;20214;-70
2021/07/25 08:36:03;;;;;;;11.90;10.70;;;23.50;99.90;;;;;;4996944;28;20195;-70
2021/07/25 08:38:29;;;;;;;11.97;10.77;;;23.50;99.90;;;;;;4996958;28;20172;-71
2021/07/25 08:41:21;;;;;;;14.17;12.43;;;23.60;99.90;;;;;;4996898;28;20506;-70
2021/07/25 08:43:47;;;;;;;17.40;11.57;;;23.70;99.90;;;;;;4996810;28;20179;-71
2021/07/25 08:46:18;;;;;;;12.17;10.97;;;23.80;99.90;;;;;;4996779;28;20830;-70
2021/07/25 08:48:46;;;;;;;16.43;12.47;;;23.90;99.90;;;;;;4996614;28;20183;-71
2021/07/25 08:51:21;;;;;;;12.93;11.73;;;24.00;99.90;;;;;;4979893;28;20733;-71
2021/07/25 08:54:08;;;;;;;11.90;10.77;;;24.00;99.90;;;;;;4996758;28;20485;-70
2021/07/25 08:56:35;;;;;;;12.23;10.87;;;24.20;99.90;;;;;;4996420;28;20480;-70
2021/07/25 08:59:06;;;;;;;11.40;10.33;;;24.30;99.90;;;;;;4996541;28;20798;-71
2021/07/25 09:01:37;;;;;;;12.10;10.93;;;24.40;99.90;;;;;;4996490;28;20468;-71
2021/07/25 09:04:03;;;;;;;11.23;10.23;;;24.40;99.90;;;;;;4996414;28;20410;-71
2021/07/25 09:06:43;;;;;;;12.70;11.37;;;24.50;99.90;;;;;;4996188;28;20406;-71
2021/07/25 09:09:09;;;;;;;10.03;9.23;;;24.60;99.90;;;;;;4996303;28;20762;-71
2021/07/25 09:11:36;;;;;;;10.47;9.57;;;24.70;99.90;;;;;;4996313;28;20501;-71
2021/07/25 09:14:05;;;;;;;9.53;8.70;;;24.70;99.90;;;;;;4996306;28;20402;-70
2021/07/25 09:16:33;;;;;;;10.70;9.47;;;24.70;99.90;;;;;;4996149;28;20926;-71
2021/07/25 09:19:00;;;;;;;10.40;9.50;;;24.80;99.90;;;;;;4996366;28;20418;-71
2021/07/25 09:21:38;;;;;;;10.47;9.57;;;24.90;99.90;;;;;;4996094;28;20421;-70
2021/07/25 09:24:25;;;;;;;10.47;8.83;;;25.00;99.90;;;;;;4995987;28;20408;-71
2021/07/25 09:27:04;;;;;;;8.77;7.97;;;25.20;99.90;;;;;;4996272;28;20742;-70
2021/07/25 09:29:35;;;;;;;10.10;9.13;;;25.30;99.90;;;;;;4995988;28;20426;-71
2021/07/25 09:32:18;;;;;;;10.43;9.53;;;25.40;99.90;;;;;;4995938;28;20382;-71
2021/07/25 09:34:46;;;;;;;9.93;9.10;;;25.50;99.90;;;;;;4995884;28;20424;-70
2021/07/25 09:37:22;;;;;;;9.33;8.43;;;25.50;99.90;;;;;;4995705;28;20462;-71
2021/07/25 09:39:55;;;;;;;10.03;9.17;;;25.70;99.90;;;;;;4995936;28;20441;-71
2021/07/25 09:42:31;;;;;;;10.43;9.40;;;25.80;99.90;;;;;;4995647;28;20860;-70
2021/07/25 09:44:59;;;;;;;13.83;9.97;;;25.90;99.90;;;;;;4995727;28;20852;-70
2021/07/25 09:47:33;;;;;;;9.37;8.50;;;26.10;99.90;;;;;;4995785;28;20816;-71
2021/07/25 09:50:04;;;;;;;10.07;9.17;;;26.20;99.90;;;;;;4995413;28;20438;-70
2021/07/25 09:52:32;;;;;;;9.93;9.03;;;26.30;99.90;;;;;;4995497;28;20430;-71
2021/07/25 09:54:58;;;;;;;9.67;8.77;;;26.40;99.90;;;;;;4995454;28;20407;-71
2021/07/25 09:57:26;;;;;;;10.57;8.80;;;26.50;99.90;;;;;;4995179;28;20536;-70
2021/07/25 09:59:56;;;;;;;8.93;8.10;;;26.70;99.90;;;;;;4995404;28;20486;-71
2021/07/25 10:02:34;;;;;;;9.00;8.17;;;26.70;99.90;;;;;;4995562;28;20391;-70
2021/07/25 10:05:19;;;;;;;8.70;7.20;;;26.70;99.90;;;;;;4995376;28;20883;-70
2021/07/25 10:07:46;;;;;;;7.67;7.03;;;26.70;99.90;;;;;;4995272;28;20433;-70
2021/07/25 10:10:15;;;;;;;8.20;7.60;;;26.60;99.90;;;;;;4995243;28;20407;-70
2021/07/25 10:12:44;;;;;;;8.43;7.60;;;26.60;99.90;;;;;;4995186;28;20425;-70
2021/07/25 10:15:11;;;;;;;8.60;7.90;;;26.80;99.90;;;;;;4995050;28;20406;-71
2021/07/25 10:17:39;;;;;;;10.20;8.30;;;26.70;99.90;;;;;;4994941;28;20516;-70
2021/07/25 10:20:08;;;;;;;7.80;7.10;;;26.80;99.90;;;;;;4994182;28;20860;-70
2021/07/25 10:22:35;;;;;;;9.20;8.30;;;26.80;99.90;;;;;;4994977;28;20407;-70
2021/07/25 10:25:03;;;;;;;11.73;8.30;;;26.90;99.90;;;;;;4994971;28;20806;-71
2021/07/25 10:27:32;;;;;;;8.87;7.97;;;26.80;99.90;;;;;;4995168;28;20853;-70
2021/07/25 10:30:11;;;;;;;8.57;7.67;;;26.80;99.90;;;;;;4995109;28;20430;-71
2021/07/25 10:32:38;;;;;;;7.70;7.00;;;27.20;99.90;;;;;;4994859;28;20395;-71
2021/07/25 10:35:09;;;;;;;7.73;7.10;;;27.40;99.90;;;;;;4994802;28;20494;-70
2021/07/25 10:37:37;;;;;;;8.80;8.10;;;27.30;99.90;;;;;;4994662;28;20461;-70
2021/07/25 10:40:04;;;;;;;6.80;6.30;;;27.30;99.90;;;;;;4994728;28;20411;-71
2021/07/25 10:42:31;;;;;;;6.57;6.07;;;27.40;99.90;;;;;;4994634;28;20414;-71
2021/07/25 10:44:57;;;;;;;8.30;7.60;;;27.60;99.90;;;;;;4994719;28;20425;-70
2021/07/25 10:47:23;;;;;;;8.80;7.90;;;27.70;99.90;;;;;;4994677;28;20548;-71
2021/07/25 10:50:01;;;;;;;8.33;7.63;;;27.60;99.90;;;;;;4994472;28;20925;-70
2021/07/25 10:52:59;;;;;;;7.70;7.10;;;27.40;99.90;;;;;;4994600;28;20167;-71
2021/07/25 10:55:34;;;;;;;7.30;6.70;;;27.40;99.90;;;;;;4994806;28;20383;-70
2021/07/25 10:58:04;;;;;;;8.43;7.70;;;27.50;99.90;;;;;;4994719;28;20414;-70
2021/07/25 11:00:39;;;;;;;8.27;7.63;;;27.80;99.90;;;;;;4994444;28;20460;-70
2021/07/25 11:03:05;;;;;;;7.93;7.23;;;28.00;99.90;;;;;;4994657;28;20394;-70
2021/07/25 11:05:31;;;;;;;8.00;7.20;;;28.20;99.90;;;;;;4994386;28;20401;-70
2021/07/25 11:07:58;;;;;;;7.63;6.83;;;28.40;99.90;;;;;;4994350;28;20178;-71
2021/07/25 11:10:35;;;;;;;8.20;7.37;;;28.60;99.90;;;;;;4994547;28;20178;-70
2021/07/25 11:13:01;;;;;;;7.77;7.17;;;28.60;99.90;;;;;;4994502;28;20713;-70
2021/07/25 11:18:06;;;;;;;7.77;7.10;;;28.70;99.90;;;;;;4994227;28;20500;-70
2021/07/25 11:20:39;;;;;;;7.97;7.27;;;28.90;99.90;;;;;;4994474;28;20398;-70
2021/07/25 11:23:18;;;;;;;8.17;7.57;;;29.00;99.90;;;;;;4994506;28;20421;-71
2021/07/25 11:25:55;;;;;;;8.27;7.53;;;29.20;99.90;;;;;;4994474;28;20419;-71
2021/07/25 11:28:42;;;;;;;7.50;6.80;;;29.60;99.90;;;;;;4994446;28;20414;-70
2021/07/25 11:31:12;;;;;;;8.07;7.40;;;29.80;99.90;;;;;;4996327;28;20485;-71
2021/07/25 11:33:41;;;;;;;7.80;6.33;;;30.00;99.90;;;;;;4998218;28;20395;-71
2021/07/25 11:36:11;;;;;;;6.87;6.30;;;30.10;99.90;;;;;;4980845;28;20450;-71
2021/07/25 11:38:39;;;;;;;6.70;6.10;;;30.10;99.90;;;;;;4998123;28;20761;-70
2021/07/25 11:41:06;;;;;;;7.10;6.50;;;30.00;99.90;;;;;;4998079;28;20406;-70
2021/07/25 11:43:52;;;;;;;7.17;6.60;;;30.00;99.90;;;;;;4997951;28;20446;-71
2021/07/25 11:46:22;;;;;;;7.10;6.60;;;30.10;99.90;;;;;;4997989;28;20421;-71
2021/07/25 11:48:47;;;;;;;5.23;4.83;;;30.20;99.90;;;;;;4997873;28;20738;-71
2021/07/25 11:51:22;;;;;;;6.00;5.50;;;30.40;99.90;;;;;;4997756;28;20417;-70
2021/07/25 11:53:47;;;;;;;5.20;4.70;;;30.60;99.90;;;;;;4997914;28;20150;-70
2021/07/25 11:56:13;;;;;;;5.50;5.03;;;30.80;99.90;;;;;;4997697;28;20442;-70
2021/07/25 11:58:38;;;;;;;5.80;5.30;;;30.90;99.90;;;;;;4997723;28;20194;-70
2021/07/25 12:01:11;;;;;;;6.27;5.80;;;30.90;99.70;;;;;;4997701;28;20609;-70
2021/07/25 12:03:36;;;;;;;6.80;6.17;;;30.80;99.90;;;;;;4980659;28;20159;-71
2021/07/25 12:06:11;;;;;;;6.90;6.40;;;30.60;99.70;;;;;;4997561;28;20500;-70
2021/07/25 12:08:37;;;;;;;6.83;6.27;;;30.30;99.90;;;;;;4980400;28;20190;-71
2021/07/25 12:11:03;;;;;;;6.53;6.03;;;30.10;99.90;;;;;;4997558;28;20410;-70
2021/07/25 12:13:29;;;;;;;5.53;5.13;;;30.10;99.90;;;;;;4997470;28;20254;-70
2021/07/25 12:16:04;;;;;;;7.73;5.97;;;29.90;99.90;;;;;;4997318;28;20540;-71
2021/07/25 12:18:30;;;;;;;6.20;5.70;;;29.70;99.90;;;;;;4997389;28;20179;-71
2021/07/25 12:20:55;;;;;;;5.90;5.40;;;29.60;99.90;;;;;;4997354;28;20407;-70
2021/07/25 12:23:36;;;;;;;6.47;5.97;;;29.40;99.90;;;;;;4997412;28;20167;-70
2021/07/25 12:26:02;;;;;;;5.77;5.37;;;29.20;99.90;;;;;;4997506;28;20159;-70
2021/07/25 12:28:28;;;;;;;6.23;5.63;;;29.10;99.90;;;;;;4997149;28;20421;-70
2021/07/25 12:30:56;;;;;;;5.90;5.43;;;29.20;99.90;;;;;;4997351;28;20665;-70
2021/07/25 12:33:32;;;;;;;5.60;5.20;;;29.20;99.90;;;;;;4997025;28;20414;-70
2021/07/25 12:36:20;;;;;;;6.70;6.10;;;29.30;99.90;;;;;;4996980;28;20441;-71
2021/07/25 12:38:45;;;;;;;5.80;5.30;;;29.40;99.90;;;;;;4997072;28;20721;-70
2021/07/25 12:41:11;;;;;;;6.70;6.10;;;29.50;99.90;;;;;;4996834;28;20413;-70